Search METAR Data

METAR Data for ENGM:

ENGM 131650Z 11006KT 050V150 9999 FEW043 BKN063 14/04 Q1008 NOSIG